Time;durP1;ratioP1;P1;durP2;ratioP2;P2;SDS_P1;SDS_P2;PMS_P1;PMS_P2;Temp;Humidity;BMP_temperature;BMP_pressure;BME280_temperature;BME280_humidity;BME280_pressure;Samples;Min_cycle;Max_cycle;Signal;HPM_P1;HPM_P2
2021/07/30 00:01:37;;;;;;;13.90;7.93;;;;;;;14.92;91.53;95242.78;5034995;28;20498;-79
2021/07/30 00:04:03;;;;;;;17.98;8.10;;;;;;;14.72;92.02;95238.75;5034217;28;20044;-80
2021/07/30 00:06:29;;;;;;;13.73;8.30;;;;;;;14.72;92.14;95249.34;5041947;28;20043;-79
2021/07/30 00:08:54;;;;;;;15.02;8.02;;;;;;;14.66;92.48;95240.75;5042599;28;20033;-79
2021/07/30 00:11:20;;;;;;;15.68;8.35;;;;;;;14.72;92.73;95228.97;5047838;28;20063;-79
2021/07/30 00:13:46;;;;;;;15.60;8.77;;;;;;;14.76;92.44;95228.38;5039564;28;20095;-79
2021/07/30 00:16:11;;;;;;;15.60;8.15;;;;;;;14.80;92.21;95229.31;5042416;28;20045;-79
2021/07/30 00:18:37;;;;;;;17.40;8.80;;;;;;;14.76;92.30;95233.66;5040263;28;20049;-80
2021/07/30 00:21:04;;;;;;;17.55;8.80;;;;;;;14.72;92.45;95238.75;5040142;28;20456;-79
2021/07/30 00:23:29;;;;;;;13.43;8.50;;;;;;;14.77;91.76;95245.78;5033103;28;20037;-79
2021/07/30 00:25:55;;;;;;;18.88;8.75;;;;;;;14.75;91.81;95245.34;5045400;28;20037;-79
2021/07/30 00:28:21;;;;;;;17.10;9.00;;;;;;;14.58;92.56;95241.44;5052778;28;20037;-80
2021/07/30 00:30:46;;;;;;;15.75;8.90;;;;;;;14.62;92.48;95245.09;5054519;28;20047;-79
2021/07/30 00:33:12;;;;;;;14.93;8.50;;;;;;;14.59;92.48;95240.38;5045368;28;20485;-79
2021/07/30 00:35:38;;;;;;;14.18;8.57;;;;;;;14.38;93.73;95240.84;5035223;28;20589;-79
2021/07/30 00:38:03;;;;;;;18.38;8.73;;;;;;;14.37;93.67;95249.88;5042350;28;20094;-79
2021/07/30 00:40:29;;;;;;;17.17;9.63;;;;;;;14.34;94.58;95245.16;5038414;28;20410;-80
2021/07/30 00:42:54;;;;;;;19.17;8.85;;;;;;;14.42;93.09;95248.19;5040030;28;20048;-80
2021/07/30 00:45:20;;;;;;;14.43;8.75;;;;;;;14.36;93.21;95243.00;5054613;28;20049;-79
2021/07/30 00:47:47;;;;;;;14.98;9.40;;;;;;;14.38;93.46;95246.13;5048099;28;20083;-79
2021/07/30 00:50:14;;;;;;;17.02;9.57;;;;;;;14.41;93.67;95249.25;5041481;28;20490;-79
2021/07/30 00:52:40;;;;;;;21.30;9.48;;;;;;;14.27;94.63;95242.16;5036072;28;20040;-79
2021/07/30 00:55:08;;;;;;;17.55;8.88;;;;;;;14.25;93.84;95236.38;5045335;28;20055;-79
2021/07/30 00:57:34;;;;;;;18.60;8.77;;;;;;;14.34;94.13;95239.88;5040472;28;20057;-79
2021/07/30 01:00:00;;;;;;;13.82;8.48;;;;;;;14.35;93.61;95236.16;5034585;28;20495;-80
2021/07/30 01:02:26;;;;;;;15.25;9.10;;;;;;;14.34;94.30;95239.88;5040430;28;20086;-79
2021/07/30 01:04:51;;;;;;;16.98;9.38;;;;;;;14.48;93.03;95245.13;5038238;28;20525;-79
2021/07/30 01:07:17;;;;;;;15.10;9.43;;;;;;;14.40;93.71;95245.06;5039490;28;21651;-80
2021/07/30 01:09:43;;;;;;;19.02;9.65;;;;;;;14.20;94.51;95239.91;5033982;28;20422;-79
2021/07/30 01:12:09;;;;;;;16.63;9.10;;;;;;;14.25;94.61;95241.69;5048371;28;20044;-79
2021/07/30 01:14:35;;;;;;;17.25;10.00;;;;;;;14.27;94.50;95239.50;5039064;28;20040;-79
2021/07/30 01:17:00;;;;;;;15.40;9.10;;;;;;;14.36;94.30;95242.22;5040145;28;20455;-79
2021/07/30 01:19:26;;;;;;;16.27;9.35;;;;;;;14.38;93.98;95235.56;5030120;28;20503;-80
2021/07/30 01:21:53;;;;;;;16.50;9.57;;;;;;;14.31;94.86;95235.19;5039785;28;20423;-79
2021/07/30 01:24:20;;;;;;;17.05;9.73;;;;;;;14.44;94.50;95240.72;5043483;28;20077;-79
2021/07/30 01:26:47;;;;;;;17.58;9.80;;;;;;;14.58;94.40;95228.19;5045583;28;20040;-79
2021/07/30 01:29:13;;;;;;;16.88;9.38;;;;;;;14.49;94.72;95224.72;5042198;28;20034;-79
2021/07/30 01:31:38;;;;;;;18.42;9.02;;;;;;;14.50;94.76;95231.59;5032207;28;20041;-80
2021/07/30 01:34:04;;;;;;;16.45;9.48;;;;;;;14.55;94.74;95236.75;5036088;28;20060;-79
2021/07/30 01:36:29;;;;;;;14.68;9.27;;;;;;;14.68;93.94;95233.31;5030345;28;20042;-79
2021/07/30 01:38:56;;;;;;;17.90;9.02;;;;;;;14.66;94.56;95240.75;5034168;28;20116;-80
2021/07/30 01:41:21;;;;;;;18.20;9.73;;;;;;;14.53;94.80;95230.97;5043179;28;20495;-79
2021/07/30 01:43:47;;;;;;;17.73;9.52;;;;;;;14.70;93.69;95231.13;5040698;28;20046;-80
2021/07/30 01:46:12;;;;;;;14.70;8.75;;;;;;;14.62;93.68;95231.84;5046725;28;20037;-79
2021/07/30 01:48:38;;;;;;;19.88;9.90;;;;;;;14.49;94.38;95230.78;5046206;28;20240;-79
2021/07/30 01:51:04;;;;;;;18.30;9.90;;;;;;;14.42;94.50;95229.66;5043049;28;20060;-78
2021/07/30 01:53:30;;;;;;;17.27;9.50;;;;;;;14.29;95.12;95226.75;5035641;28;20041;-78
2021/07/30 01:55:56;;;;;;;17.10;9.43;;;;;;;14.27;95.08;95228.91;5031491;28;20046;-80
2021/07/30 01:58:22;;;;;;;17.35;9.45;;;;;;;14.09;97.18;95219.28;5036639;28;20037;-78
2021/07/30 02:00:47;;;;;;;17.92;8.90;;;;;;;14.35;95.16;95214.97;5037976;28;20060;-78
2021/07/30 02:03:13;;;;;;;18.63;9.55;;;;;;;14.38;94.41;95219.66;5059184;28;21973;-79
2021/07/30 02:05:39;;;;;;;18.92;9.30;;;;;;;14.16;95.58;95219.63;5044612;28;20049;-78
2021/07/30 02:08:05;;;;;;;15.50;9.00;;;;;;;14.29;95.20;95221.44;5042760;28;20069;-78
2021/07/30 02:10:32;;;;;;;16.67;9.43;;;;;;;14.45;94.23;95218.47;5036098;28;20550;-78
2021/07/30 02:15:41;;;;;;;17.10;9.32;;;;;;;14.44;94.57;95227.47;5034408;28;20044;-78
2021/07/30 02:18:07;;;;;;;17.67;10.00;;;;;;;14.34;95.33;95234.59;5036344;28;20040;-77
2021/07/30 02:20:32;;;;;;;16.23;9.82;;;;;;;14.53;94.54;95237.06;5031180;28;20038;-78
2021/07/30 02:22:58;;;;;;;16.88;10.35;;;;;;;14.52;94.25;95240.81;5042782;28;20462;-78
2021/07/30 02:25:24;;;;;;;18.23;10.35;;;;;;;14.63;94.13;95236.06;5044583;28;20044;-78
2021/07/30 02:27:49;;;;;;;19.02;9.40;;;;;;;14.63;94.20;95241.34;5040649;28;20052;-78
2021/07/30 02:30:15;;;;;;;18.40;10.25;;;;;;;14.57;94.54;95239.91;5029364;28;20422;-77
2021/07/30 02:32:40;;;;;;;18.92;9.95;;;;;;;14.43;95.04;95244.47;5036918;28;20045;-79
2021/07/30 02:35:06;;;;;;;17.42;9.52;;;;;;;14.60;94.37;95247.22;5032830;28;20046;-79
2021/07/30 02:37:32;;;;;;;19.27;10.02;;;;;;;14.53;94.86;95252.16;5037691;28;20045;-80
2021/07/30 02:39:57;;;;;;;16.52;9.95;;;;;;;14.59;94.89;95240.38;5031123;28;20396;-81
2021/07/30 02:42:23;;;;;;;15.82;9.98;;;;;;;14.70;94.73;95252.31;5039112;28;20099;-79
2021/07/30 02:44:50;;;;;;;17.23;8.85;;;;;;;14.63;94.24;95249.31;5035316;28;20041;-79
2021/07/30 02:47:16;;;;;;;19.38;9.77;;;;;;;14.78;94.17;95242.06;5035260;28;20120;-79
2021/07/30 02:49:41;;;;;;;17.00;9.60;;;;;;;14.60;94.61;95239.28;5041236;28;20152;-79
2021/07/30 02:52:07;;;;;;;16.92;9.98;;;;;;;14.73;94.47;95261.53;5045779;28;20050;-80
2021/07/30 02:54:32;;;;;;;17.27;9.48;;;;;;;14.73;94.15;95262.31;5043227;28;20399;-79
2021/07/30 02:56:58;;;;;;;16.45;9.90;;;;;;;14.61;94.96;95259.41;5043564;28;20140;-79
2021/07/30 02:59:23;;;;;;;18.48;9.68;;;;;;;14.58;95.25;95264.50;5046578;28;20042;-79
2021/07/30 03:01:49;;;;;;;24.40;10.77;;;;;;;14.63;95.51;95262.53;5045129;28;20037;-79
2021/07/30 03:04:14;;;;;;;17.67;10.32;;;;;;;14.78;95.14;95264.03;5044074;28;20041;-79
2021/07/30 03:06:40;;;;;;;19.90;11.23;;;;;;;14.69;95.56;95266.63;5047207;28;20036;-78
2021/07/30 03:09:05;;;;;;;16.23;9.63;;;;;;;14.75;95.18;95272.59;5042834;28;20464;-78
2021/07/30 03:11:31;;;;;;;16.33;10.10;;;;;;;14.84;94.61;95268.16;5042323;28;20037;-79
2021/07/30 03:13:56;;;;;;;17.83;10.50;;;;;;;14.73;95.80;95275.53;5040486;28;20048;-79
2021/07/30 03:16:22;;;;;;;21.80;11.68;;;;;;;14.89;95.92;95272.53;5042156;28;20037;-78
2021/07/30 03:18:47;;;;;;;18.60;10.82;;;;;;;14.98;94.80;95261.97;5047312;28;20625;-78
2021/07/30 03:21:13;;;;;;;17.88;10.45;;;;;;;14.96;95.72;95275.53;5041982;28;20509;-78
2021/07/30 03:23:38;;;;;;;17.95;10.75;;;;;;;15.00;95.69;95265.91;5035504;28;20041;-78
2021/07/30 03:26:04;;;;;;;18.95;10.75;;;;;;;15.05;94.78;95265.75;5044416;28;20104;-79
2021/07/30 03:28:30;;;;;;;19.38;10.85;;;;;;;14.80;96.00;95261.88;5034828;28;20037;-80
2021/07/30 03:30:59;;;;;;;21.67;11.15;;;;;;;15.03;95.80;95275.13;5041816;28;20041;-78
2021/07/30 03:33:25;;;;;;;22.60;11.45;;;;;;;15.18;95.62;95276.59;5054122;28;20119;-78
2021/07/30 03:35:51;;;;;;;16.95;10.43;;;;;;;15.17;95.01;95269.72;5040089;28;20037;-79
2021/07/30 03:38:17;;;;;;;21.60;11.13;;;;;;;15.09;95.43;95273.13;5042218;28;20690;-78
2021/07/30 03:40:43;;;;;;;18.67;11.20;;;;;;;15.13;96.28;95279.38;5053713;28;20041;-79
2021/07/30 03:43:09;;;;;;;18.65;11.38;;;;;;;15.26;95.30;95273.22;5048691;28;20041;-78
2021/07/30 03:45:34;;;;;;;20.42;11.50;;;;;;;15.03;96.16;95281.19;5053301;28;20052;-79
2021/07/30 03:48:00;;;;;;;24.73;13.80;;;;;;;15.19;96.22;95278.16;5043633;28;20120;-79
2021/07/30 03:50:26;;;;;;;22.90;13.40;;;;;;;15.30;95.82;95282.13;5044377;28;20045;-80
2021/07/30 03:52:51;;;;;;;23.60;13.60;;;;;;;15.23;96.00;95273.81;5041497;28;20041;-78
2021/07/30 03:55:17;;;;;;;21.40;11.68;;;;;;;15.28;95.29;95265.72;5039127;28;20036;-78
2021/07/30 03:57:42;;;;;;;21.60;12.52;;;;;;;15.18;96.10;95271.28;5058702;28;20040;-78
2021/07/30 04:00:08;;;;;;;24.48;13.90;;;;;;;15.04;96.43;95272.16;5040640;28;20045;-81
2021/07/30 04:02:34;;;;;;;25.77;14.38;;;;;;;15.11;96.26;95281.53;5044087;28;20042;-79
2021/07/30 04:05:00;;;;;;;25.88;13.05;;;;;;;15.28;95.41;95286.94;5033776;28;20060;-78
2021/07/30 04:07:25;;;;;;;25.45;12.93;;;;;;;15.40;94.53;95279.19;5031768;28;20037;-78
2021/07/30 04:09:53;;;;;;;20.42;12.55;;;;;;;15.31;94.77;95270.41;5052709;28;20057;-79
2021/07/30 04:12:18;;;;;;;28.15;13.63;;;;;;;15.40;94.54;95278.41;5046253;28;20041;-79
2021/07/30 04:14:44;;;;;;;22.70;13.70;;;;;;;15.46;94.43;95279.06;5043957;28;20033;-78
2021/07/30 04:17:11;;;;;;;19.42;12.65;;;;;;;15.47;94.03;95278.75;5040988;28;20034;-78
2021/07/30 04:19:36;;;;;;;24.02;12.45;;;;;;;15.38;93.71;95284.00;5044969;28;20045;-79
2021/07/30 04:22:02;;;;;;;26.25;13.00;;;;;;;15.49;93.21;95276.59;5036638;28;20609;-78
2021/07/30 04:24:28;;;;;;;21.00;12.48;;;;;;;15.44;93.57;95278.59;5036961;28;20049;-78
2021/07/30 04:26:53;;;;;;;22.63;12.13;;;;;;;15.46;93.90;95271.91;5037914;28;20095;-79
2021/07/30 04:29:19;;;;;;;25.05;12.85;;;;;;;15.37;94.08;95279.81;5045356;28;20041;-79
2021/07/30 04:31:44;;;;;;;23.35;12.98;;;;;;;15.37;94.12;95279.03;5036673;28;20030;-78
2021/07/30 04:34:10;;;;;;;19.02;12.48;;;;;;;15.29;94.59;95283.19;5034337;28;20041;-78
2021/07/30 04:36:35;;;;;;;26.60;12.38;;;;;;;15.39;94.22;95282.94;5038604;28;20052;-78
2021/07/30 04:39:01;;;;;;;22.42;12.43;;;;;;;15.36;94.44;95266.88;5039134;28;20407;-78
2021/07/30 04:41:27;;;;;;;21.80;11.85;;;;;;;15.32;94.73;95266.69;5031563;28;20037;-78
2021/07/30 04:43:52;;;;;;;23.10;12.93;;;;;;;15.36;94.33;95272.94;5042258;28;20207;-80
2021/07/30 04:46:18;;;;;;;21.05;12.57;;;;;;;15.35;94.37;95265.31;5039664;28;20045;-78
2021/07/30 04:48:45;;;;;;;22.73;13.07;;;;;;;15.34;94.45;95269.81;5041435;28;20048;-80
2021/07/30 04:51:12;;;;;;;23.27;13.05;;;;;;;15.41;94.30;95259.56;5041735;28;20046;-78
2021/07/30 04:53:37;;;;;;;25.33;12.85;;;;;;;15.45;93.88;95264.25;5042587;28;20034;-79
2021/07/30 04:56:04;;;;;;;24.05;13.68;;;;;;;15.47;93.94;95268.13;5043439;28;20848;-80
2021/07/30 04:58:29;;;;;;;24.25;12.68;;;;;;;15.39;93.89;95251.13;5043679;28;20036;-78
2021/07/30 05:00:55;;;;;;;21.83;12.80;;;;;;;15.46;94.27;95261.28;5044573;28;20040;-79
2021/07/30 05:03:21;;;;;;;20.50;12.30;;;;;;;15.47;94.27;95264.72;5048898;28;20685;-78
2021/07/30 05:05:47;;;;;;;23.83;13.07;;;;;;;15.40;94.65;95263.28;5039697;28;20061;-77
2021/07/30 05:08:12;;;;;;;26.92;12.98;;;;;;;15.45;94.07;95264.25;5040802;28;20083;-78
2021/07/30 05:10:38;;;;;;;30.38;13.18;;;;;;;15.47;94.30;95262.84;5046204;28;20037;-78
2021/07/30 05:13:03;;;;;;;21.90;13.20;;;;;;;15.47;94.03;95267.38;5037704;28;20053;-78
2021/07/30 05:15:30;;;;;;;23.35;13.35;;;;;;;15.54;93.08;95273.00;5037615;28;20048;-78
2021/07/30 05:17:58;;;;;;;26.95;12.90;;;;;;;15.54;93.58;95273.00;5031428;28;20503;-78
2021/07/30 05:20:24;;;;;;;22.55;12.65;;;;;;;15.55;93.41;95263.97;5030817;28;20090;-79
2021/07/30 05:22:49;;;;;;;27.33;13.27;;;;;;;15.56;92.93;95265.53;5035452;28;20107;-78
2021/07/30 05:25:15;;;;;;;29.15;12.55;;;;;;;15.58;92.98;95273.97;5047028;28;20045;-78
2021/07/30 05:27:41;;;;;;;22.63;12.82;;;;;;;15.60;93.11;95277.06;5047761;28;20521;-78
2021/07/30 05:30:06;;;;;;;22.88;12.23;;;;;;;15.64;92.51;95267.44;5054957;28;20086;-78
2021/07/30 05:32:32;;;;;;;25.73;13.13;;;;;;;15.65;93.35;95252.31;5045109;28;20044;-78
2021/07/30 05:34:57;;;;;;;21.67;13.15;;;;;;;15.59;92.64;95259.63;5033426;28;20045;-79
2021/07/30 05:37:23;;;;;;;29.55;13.18;;;;;;;15.80;92.23;95257.19;5036798;28;20045;-78
2021/07/30 05:39:48;;;;;;;24.27;12.63;;;;;;;15.89;89.67;95251.94;5029162;28;20041;-79
2021/07/30 05:42:14;;;;;;;22.60;11.88;;;;;;;15.92;89.38;95257.41;5037817;28;20487;-78
2021/07/30 05:44:40;;;;;;;24.15;12.30;;;;;;;15.93;88.83;95252.84;5030841;28;20418;-79
2021/07/30 05:47:06;;;;;;;25.35;13.38;;;;;;;15.99;88.24;95261.44;5035776;28;20038;-79
2021/07/30 05:49:34;;;;;;;22.95;12.10;;;;;;;16.08;89.81;95255.06;5037374;28;20033;-79
2021/07/30 05:52:00;;;;;;;26.63;12.35;;;;;;;16.23;88.06;95255.72;5043381;28;20045;-78
2021/07/30 05:54:25;;;;;;;24.30;12.80;;;;;;;16.27;87.49;95254.78;5038966;28;20588;-78
2021/07/30 05:56:55;;;;;;;24.05;12.48;;;;;;;16.42;87.74;95247.44;5037143;28;20056;-77
2021/07/30 05:59:22;;;;;;;21.35;12.32;;;;;;;16.43;88.83;95249.81;5036530;28;20048;-81
2021/07/30 06:01:48;;;;;;;26.95;13.68;;;;;;;16.47;85.59;95249.94;5041576;28;20087;-77
2021/07/30 06:04:13;;;;;;;21.23;13.05;;;;;;;16.49;86.83;95253.06;5038186;28;20432;-78
2021/07/30 06:06:38;;;;;;;24.20;12.52;;;;;;;16.58;86.15;95256.50;5037894;28;20041;-78
2021/07/30 06:09:04;;;;;;;23.63;12.00;;;;;;;16.63;84.79;95252.91;5038842;28;20043;-78
2021/07/30 06:11:29;;;;;;;22.83;12.30;;;;;;;16.69;85.83;95256.94;5046152;28;20044;-79
2021/07/30 06:13:55;;;;;;;22.55;12.27;;;;;;;16.74;85.14;95259.47;5044861;28;20033;-80
2021/07/30 06:16:21;;;;;;;21.52;11.65;;;;;;;16.94;83.58;95257.28;5039876;28;20120;-79
2021/07/30 06:18:46;;;;;;;21.67;11.32;;;;;;;16.97;84.10;95254.00;5043307;28;20044;-79
2021/07/30 06:21:12;;;;;;;21.35;11.05;;;;;;;17.16;83.50;95263.47;5038498;28;20140;-78
2021/07/30 06:23:37;;;;;;;18.30;10.30;;;;;;;17.24;84.63;95257.34;5038084;28;20045;-79
2021/07/30 06:26:03;;;;;;;22.85;10.50;;;;;;;17.26;83.45;95247.19;5037147;28;20057;-79
2021/07/30 06:28:28;;;;;;;21.40;11.57;;;;;;;17.31;84.57;95261.09;5045400;28;20037;-79
2021/07/30 06:30:54;;;;;;;20.70;11.82;;;;;;;17.38;84.30;95262.47;5038826;28;20064;-78
2021/07/30 06:33:22;;;;;;;24.95;11.70;;;;;;;17.44;85.02;95264.63;5031739;28;20042;-79
2021/07/30 06:35:49;;;;;;;17.90;11.40;;;;;;;17.57;85.67;95251.44;5035856;28;20037;-78
2021/07/30 06:38:15;;;;;;;22.77;11.70;;;;;;;17.58;86.06;95256.44;5029742;28;20091;-78
2021/07/30 06:40:40;;;;;;;18.65;11.00;;;;;;;17.80;86.28;95250.06;5055092;28;20061;-79
2021/07/30 06:43:05;;;;;;;23.80;12.65;;;;;;;17.86;85.48;95255.19;5039473;28;20117;-78
2021/07/30 06:45:31;;;;;;;21.80;12.23;;;;;;;17.94;85.88;95259.72;5032916;28;20056;-79
2021/07/30 06:47:57;;;;;;;20.40;12.23;;;;;;;17.94;86.49;95262.38;5037123;28;20116;-78
2021/07/30 06:50:22;;;;;;;18.98;11.75;;;;;;;17.93;86.86;95256.28;5041113;28;20497;-78
2021/07/30 06:52:48;;;;;;;21.58;12.40;;;;;;;17.99;87.27;95257.66;5040705;28;20045;-79
2021/07/30 06:55:13;;;;;;;22.00;12.85;;;;;;;18.01;87.19;95260.00;5043511;28;20041;-78
2021/07/30 06:57:39;;;;;;;23.63;13.38;;;;;;;17.97;87.66;95253.75;5036399;28;20090;-79
2021/07/30 07:00:05;;;;;;;22.17;12.73;;;;;;;18.23;86.17;95258.13;5030153;28;20045;-79
2021/07/30 07:02:30;;;;;;;21.15;11.73;;;;;;;18.27;86.98;95256.38;5037574;28;20095;-79
2021/07/30 07:04:56;;;;;;;18.90;11.82;;;;;;;18.37;85.87;95245.34;5040636;28;20335;-79
2021/07/30 07:07:22;;;;;;;19.88;12.55;;;;;;;18.34;87.97;95249.41;5035238;28;20038;-78
2021/07/30 07:09:50;;;;;;;22.83;12.73;;;;;;;18.35;86.95;95247.56;5037112;28;20127;-78
2021/07/30 07:12:15;;;;;;;19.38;12.15;;;;;;;18.32;86.68;95245.53;5033665;28;20049;-78
2021/07/30 07:14:41;;;;;;;20.52;12.20;;;;;;;18.59;85.84;95244.22;5031504;28;20116;-79
2021/07/30 07:17:07;;;;;;;22.55;12.93;;;;;;;18.55;86.24;95247.84;5038638;28;20526;-78
2021/07/30 07:19:32;;;;;;;22.38;11.43;;;;;;;18.63;84.16;95247.00;5034419;28;21766;-80
2021/07/30 07:21:58;;;;;;;23.38;12.73;;;;;;;18.85;83.52;95248.53;5037004;28;20059;-80
2021/07/30 07:24:23;;;;;;;18.70;11.70;;;;;;;18.97;83.29;95239.84;5033572;28;20483;-80
2021/07/30 07:26:49;;;;;;;22.38;12.00;;;;;;;19.17;81.81;95244.31;5039339;28;20133;-81
2021/07/30 07:29:14;;;;;;;19.58;11.57;;;;;;;19.31;82.33;95235.22;5037667;28;20045;-80
2021/07/30 07:31:42;;;;;;;21.90;11.55;;;;;;;19.50;80.92;95240.78;5040974;28;20047;-79
2021/07/30 07:34:07;;;;;;;21.15;12.38;;;;;;;19.60;79.85;95228.13;5038972;28;20064;-80
2021/07/30 07:36:33;;;;;;;18.45;11.57;;;;;;;19.59;81.18;95237.25;5040822;28;20750;-80
2021/07/30 07:38:58;;;;;;;18.02;11.35;;;;;;;19.77;78.74;95227.91;5043940;28;20053;-81
2021/07/30 07:41:25;;;;;;;19.70;11.75;;;;;;;19.90;80.36;95216.13;5035574;28;20663;-84
2021/07/30 07:43:50;;;;;;;17.83;11.00;;;;;;;19.66;79.76;95221.44;5043688;28;20068;-79
2021/07/30 07:46:16;;;;;;;22.42;11.00;;;;;;;19.70;80.78;95217.00;5039827;28;20079;-77
2021/07/30 07:48:41;;;;;;;21.20;10.52;;;;;;;20.05;76.62;95216.53;5037368;28;20102;-78
2021/07/30 07:51:08;;;;;;;18.63;11.00;;;;;;;20.24;75.99;95214.03;5037342;28;20049;-79
2021/07/30 07:53:34;;;;;;;17.10;11.20;;;;;;;20.23;77.60;95207.13;5041730;28;20037;-77
2021/07/30 07:56:01;;;;;;;18.52;11.80;;;;;;;20.07;77.87;95206.31;5034064;28;20387;-78
2021/07/30 07:58:28;;;;;;;20.60;11.20;;;;;;;20.28;78.19;95208.03;5040455;28;20053;-77
2021/07/30 08:00:54;;;;;;;18.27;11.77;;;;;;;20.56;76.55;95214.16;5039973;28;20041;-78
2021/07/30 08:03:19;;;;;;;16.08;10.95;;;;;;;20.74;75.89;95219.22;5039506;28;20048;-77
2021/07/30 08:05:45;;;;;;;16.65;10.75;;;;;;;20.81;75.54;95219.41;5037089;28;20044;-77
2021/07/30 08:08:10;;;;;;;15.50;10.52;;;;;;;20.65;75.59;95231.94;5034809;28;20049;-78
2021/07/30 08:10:36;;;;;;;18.73;10.90;;;;;;;20.96;73.89;95230.47;5040679;28;20045;-78
2021/07/30 08:13:02;;;;;;;17.67;10.70;;;;;;;21.01;74.20;95227.56;5044505;28;20037;-77
2021/07/30 08:15:27;;;;;;;17.20;10.90;;;;;;;20.87;74.76;95226.06;5055407;28;20041;-78
2021/07/30 08:17:53;;;;;;;16.70;9.82;;;;;;;21.14;70.70;95226.38;5041151;28;20057;-78
2021/07/30 08:20:18;;;;;;;17.23;10.63;;;;;;;21.18;71.48;95227.25;5038354;28;20044;-76
2021/07/30 08:22:44;;;;;;;15.88;9.82;;;;;;;21.21;70.09;95226.53;5038624;28;20043;-76
2021/07/30 08:25:12;;;;;;;15.30;10.13;;;;;;;20.97;71.08;95226.69;5038888;28;20404;-77
2021/07/30 08:27:37;;;;;;;16.85;9.80;;;;;;;21.18;71.33;95229.91;5038671;28;20057;-77
2021/07/30 08:30:03;;;;;;;16.35;10.15;;;;;;;21.23;72.98;95228.88;5049525;28;20041;-77
2021/07/30 08:32:29;;;;;;;16.67;9.82;;;;;;;21.50;68.33;95232.59;5034257;28;20046;-76
2021/07/30 08:34:55;;;;;;;15.48;10.13;;;;;;;21.53;69.35;95225.81;5046349;28;20037;-77
2021/07/30 08:37:20;;;;;;;14.88;9.98;;;;;;;21.61;69.23;95228.31;5040778;28;20483;-77
2021/07/30 08:39:45;;;;;;;18.50;10.10;;;;;;;21.63;70.00;95226.03;5033817;28;20073;-77
2021/07/30 08:42:14;;;;;;;15.20;9.98;;;;;;;21.67;70.25;95223.47;5032380;28;20045;-77
2021/07/30 08:44:39;;;;;;;13.30;9.45;;;;;;;21.93;67.77;95217.53;5033398;28;20410;-78
2021/07/30 08:47:05;;;;;;;15.65;9.40;;;;;;;21.94;68.24;95219.09;5031694;28;20044;-81
2021/07/30 08:49:34;;;;;;;13.88;9.10;;;;;;;21.87;67.56;95213.56;5029077;28;20041;-79
2021/07/30 08:52:07;;;;;;;14.20;9.30;;;;;;;21.92;68.17;95218.69;5031958;28;20523;-83
2021/07/30 08:54:33;;;;;;;15.02;9.45;;;;;;;22.03;68.99;95215.44;5031720;28;20041;-77
2021/07/30 08:56:59;;;;;;;17.10;10.07;;;;;;;22.17;69.51;95210.38;5034780;28;20045;-78
2021/07/30 08:59:24;;;;;;;13.88;9.40;;;;;;;22.29;68.40;95212.16;5039484;28;20052;-78
2021/07/30 09:01:54;;;;;;;15.25;9.57;;;;;;;22.34;67.81;95209.22;5033623;28;20100;-78
2021/07/30 09:04:27;;;;;;;15.45;9.32;;;;;;;22.39;69.71;95213.53;5041275;28;20051;-79
2021/07/30 09:06:54;;;;;;;18.00;10.52;;;;;;;22.51;70.10;95212.59;5036253;28;20041;-78
2021/07/30 09:09:20;;;;;;;16.00;10.15;;;;;;;22.31;70.38;95210.69;5032448;28;20701;-79
2021/07/30 09:11:46;;;;;;;19.38;10.52;;;;;;;22.34;70.33;95203.06;5033199;28;20033;-78
2021/07/30 09:14:12;;;;;;;23.83;10.93;;;;;;;22.31;69.35;95199.97;5033732;28;20041;-78
2021/07/30 09:16:46;;;;;;;15.52;10.55;;;;;;;22.51;70.22;95201.88;5044523;28;20044;-78
2021/07/30 09:19:12;;;;;;;16.38;9.48;;;;;;;22.89;67.02;95190.34;5041526;28;20073;-81
2021/07/30 09:21:37;;;;;;;16.30;10.27;;;;;;;22.69;68.97;95196.88;5043017;28;20045;-78
2021/07/30 09:24:08;;;;;;;14.88;10.25;;;;;;;22.94;65.28;95191.94;5034076;28;20044;-80
2021/07/30 09:26:50;;;;;;;15.35;9.50;;;;;;;23.22;67.43;95194.38;5033662;28;20042;-80
2021/07/30 09:29:27;;;;;;;13.57;9.75;;;;;;;23.51;66.08;95197.50;5039622;28;20044;-79
2021/07/30 09:32:11;;;;;;;14.43;9.77;;;;;;;23.44;65.53;95197.41;5034294;28;20041;-81
2021/07/30 09:34:38;;;;;;;17.63;10.35;;;;;;;23.33;66.39;95198.00;5033429;28;20060;-81
2021/07/30 09:37:05;;;;;;;14.45;9.98;;;;;;;23.30;62.51;95188.00;5043187;28;20091;-79
2021/07/30 09:39:33;;;;;;;15.77;10.85;;;;;;;23.02;63.59;95189.03;5044422;28;20045;-80
2021/07/30 09:42:09;;;;;;;15.80;9.90;;;;;;;22.81;64.36;95183.28;5038125;28;20049;-77
2021/07/30 09:44:56;;;;;;;16.25;9.88;;;;;;;22.91;64.95;95181.94;5040929;28;20042;-78
2021/07/30 09:47:24;;;;;;;15.18;9.82;;;;;;;23.35;61.45;95174.25;5049774;28;20040;-80
2021/07/30 09:49:59;;;;;;;12.73;9.27;;;;;;;23.54;59.67;95175.31;5045508;28;20091;-79
2021/07/30 09:52:33;;;;;;;15.18;9.50;;;;;;;23.55;61.47;95176.84;5039294;28;20034;-78
2021/07/30 09:55:09;;;;;;;17.15;10.32;;;;;;;23.65;61.84;95175.47;5037218;28;20041;-77
2021/07/30 09:57:37;;;;;;;14.50;9.90;;;;;;;23.42;62.50;95167.44;5042036;28;20682;-81
2021/07/30 10:00:14;;;;;;;14.27;9.82;;;;;;;23.37;62.78;95167.75;5044050;28;20044;-78
2021/07/30 10:02:42;;;;;;;15.52;10.35;;;;;;;23.41;62.95;95160.53;5049654;28;20037;-78
2021/07/30 10:05:12;;;;;;;14.82;9.63;;;;;;;23.47;62.92;95159.09;5045366;28;20116;-79
2021/07/30 10:07:41;;;;;;;18.20;10.63;;;;;;;23.52;61.47;95150.72;5039248;28;20071;-78
2021/07/30 10:12:49;;;;;;;15.52;9.88;;;;;;;23.88;63.33;95151.25;5042825;28;20552;-78
2021/07/30 10:15:16;;;;;;;15.13;10.45;;;;;;;23.94;63.68;95144.41;5048910;28;20038;-78
2021/07/30 10:17:46;;;;;;;18.10;10.05;;;;;;;24.10;58.38;95146.91;5051208;28;20037;-79
2021/07/30 10:20:13;;;;;;;13.02;9.35;;;;;;;24.32;58.41;95139.88;5046559;28;20418;-78
2021/07/30 10:22:38;;;;;;;19.65;9.70;;;;;;;24.50;59.58;95136.63;5043408;28;20045;-78
2021/07/30 10:25:05;;;;;;;16.20;10.00;;;;;;;24.66;58.38;95145.25;5044642;28;20097;-78
2021/07/30 10:27:32;;;;;;;13.35;9.55;;;;;;;25.03;55.85;95138.28;5050851;28;20089;-77
2021/07/30 10:30:12;;;;;;;14.85;10.20;;;;;;;25.32;56.94;95128.53;5044740;28;20053;-78
2021/07/30 10:32:55;;;;;;;13.05;9.80;;;;;;;25.62;56.61;95132.97;5061962;28;20038;-77
2021/07/30 10:35:24;;;;;;;15.68;10.25;;;;;;;25.94;57.14;95126.97;5054687;28;20052;-77
2021/07/30 10:37:50;;;;;;;17.17;9.88;;;;;;;26.04;55.89;95126.28;5044873;28;20060;-78
2021/07/30 10:40:20;;;;;;;14.15;10.00;;;;;;;25.91;55.86;95122.34;5036957;28;20037;-78
2021/07/30 10:43:04;;;;;;;14.77;9.60;;;;;;;26.52;53.08;95117.19;5044635;28;20037;-77
2021/07/30 10:45:32;;;;;;;14.38;9.55;;;;;;;26.57;51.69;95114.09;5041912;28;20037;-78
2021/07/30 10:48:22;;;;;;;14.60;9.77;;;;;;;27.33;51.39;95119.59;5042275;28;22223;-78
2021/07/30 10:50:48;;;;;;;21.02;9.63;;;;;;;27.55;48.96;95114.19;5044868;28;20041;-77
2021/07/30 10:53:39;;;;;;;14.30;9.30;;;;;;;27.80;48.68;95109.47;5043628;28;20041;-78
2021/07/30 10:56:30;;;;;;;13.35;9.45;;;;;;;27.73;48.03;95109.50;5035840;28;20098;-78
2021/07/30 10:58:58;;;;;;;13.35;9.18;;;;;;;27.62;48.59;95103.34;5034834;28;20614;-77
2021/07/30 11:01:29;;;;;;;13.90;9.30;;;;;;;27.77;47.52;95099.44;5031941;28;20033;-74
2021/07/30 11:04:02;;;;;;;13.60;8.38;;;;;;;28.51;48.05;95094.09;5039275;28;20048;-75
2021/07/30 11:06:51;;;;;;;17.10;8.87;;;;;;;28.85;44.33;95104.38;5043144;28;20044;-77
2021/07/30 11:09:17;;;;;;;12.95;8.50;;;;;;;28.58;43.80;95100.66;5039979;28;20041;-77
2021/07/30 11:11:44;;;;;;;11.15;8.30;;;;;;;28.86;42.97;95095.09;5059706;28;20196;-77
2021/07/30 11:14:12;;;;;;;11.98;7.85;;;;;;;29.48;42.69;95095.34;5045754;28;20044;-76
2021/07/30 11:16:42;;;;;;;13.07;8.43;;;;;;;28.86;42.23;95094.28;5062028;28;20036;-78
2021/07/30 11:19:08;;;;;;;15.60;8.15;;;;;;;29.13;43.04;95094.47;5043544;28;20088;-78
2021/07/30 11:21:34;;;;;;;13.57;8.02;;;;;;;29.57;41.19;95091.38;5050964;28;20061;-77
2021/07/30 11:24:01;;;;;;;11.70;8.02;;;;;;;29.70;40.99;95089.69;5036363;28;20061;-78
2021/07/30 11:26:29;;;;;;;12.82;8.10;;;;;;;30.11;38.79;95085.38;5037191;28;20041;-77